createdAt,value
2022-12-25T00:00:37.546Z,5.92
2022-12-25T00:03:40.614Z,5.94
2022-12-25T00:06:43.273Z,5.87
2022-12-25T00:09:45.825Z,5.92
2022-12-25T00:12:47.958Z,6.01
2022-12-25T00:15:50.184Z,6.04
2022-12-25T00:18:53.350Z,6.07
2022-12-25T00:21:55.300Z,6.06
2022-12-25T00:24:57.330Z,5.96
2022-12-25T00:27:59.347Z,6.03
2022-12-25T00:31:05.252Z,6.06
2022-12-25T00:34:07.362Z,6.29
2022-12-25T00:37:09.350Z,6.32
2022-12-25T00:40:14.224Z,6.35
2022-12-25T00:43:16.145Z,6.35
2022-12-25T00:46:18.468Z,6.34
2022-12-25T00:49:26.027Z,6.34
2022-12-25T00:52:28.015Z,6.36
2022-12-25T00:55:31.288Z,6.39
2022-12-25T00:58:35.135Z,6.34
2022-12-25T01:01:38.284Z,6.38
2022-12-25T01:04:40.423Z,6.38
2022-12-25T01:07:42.418Z,6.24
2022-12-25T01:10:44.464Z,6.28
2022-12-25T01:13:46.474Z,6.38
2022-12-25T01:16:48.524Z,6.29
2022-12-25T01:19:50.827Z,6.46
2022-12-25T01:22:53.383Z,6.34
2022-12-25T01:25:55.297Z,6.31
2022-12-25T01:28:57.759Z,6.46
2022-12-25T01:31:59.764Z,6.47
2022-12-25T01:35:01.870Z,6.33
2022-12-25T01:38:04.012Z,6.36
2022-12-25T01:41:06.212Z,6.30
2022-12-25T01:44:28.424Z,6.38
2022-12-25T01:47:30.497Z,6.38
2022-12-25T01:50:34.065Z,6.39
2022-12-25T01:53:37.457Z,6.36
2022-12-25T01:56:42.016Z,6.36
2022-12-25T01:59:44.297Z,6.38
2022-12-25T02:02:46.957Z,6.49
2022-12-25T02:05:51.594Z,6.40
2022-12-25T02:08:53.784Z,6.43
2022-12-25T02:11:58.561Z,6.41
2022-12-25T02:15:22.325Z,6.36
2022-12-25T02:18:56.182Z,6.33
2022-12-25T02:22:13.379Z,6.26
2022-12-25T02:25:49.924Z,6.15
2022-12-25T02:29:01.716Z,6.19
2022-12-25T02:32:25.432Z,6.02
2022-12-25T02:35:31.844Z,6.11
2022-12-25T02:38:59.761Z,6.01
2022-12-25T02:42:07.008Z,5.96
2022-12-25T02:45:28.116Z,5.91
2022-12-25T02:48:52.973Z,5.99
2022-12-25T02:52:17.992Z,6.05
2022-12-25T02:55:43.385Z,6.19
2022-12-25T02:59:06.266Z,6.23
2022-12-25T03:02:27.469Z,6.24
2022-12-25T03:05:50.528Z,6.17
2022-12-25T03:09:17.199Z,6.12
2022-12-25T03:12:24.977Z,6.17
2022-12-25T03:15:45.320Z,6.04
2022-12-25T03:18:47.643Z,6.04
2022-12-25T03:22:08.692Z,6.01
2022-12-25T03:25:29.680Z,5.89
2022-12-25T03:28:31.798Z,5.91
2022-12-25T03:31:36.613Z,5.99
2022-12-25T03:35:24.433Z,5.93
2022-12-25T03:38:51.804Z,5.87
2022-12-25T03:42:19.437Z,5.86
2022-12-25T03:45:53.538Z,5.69
2022-12-25T03:49:24.906Z,5.67
2022-12-25T03:52:47.733Z,5.78
2022-12-25T03:56:10.007Z,5.81
2022-12-25T03:59:31.020Z,5.69
2022-12-25T04:02:51.916Z,5.68
2022-12-25T04:06:12.670Z,5.63
2022-12-25T04:09:33.267Z,5.75
2022-12-25T04:12:54.029Z,5.68
2022-12-25T04:16:15.112Z,5.59
2022-12-25T04:19:35.748Z,5.74
2022-12-25T04:22:56.517Z,5.80
2022-12-25T04:26:21.701Z,5.73
2022-12-25T04:29:42.155Z,5.76
2022-12-25T04:33:03.045Z,5.67
2022-12-25T04:36:12.436Z,5.67
2022-12-25T04:39:14.669Z,5.61
2022-12-25T04:42:17.648Z,5.76
2022-12-25T04:45:21.949Z,5.80
2022-12-25T04:48:24.972Z,5.75
2022-12-25T04:51:27.142Z,5.68
2022-12-25T04:54:29.106Z,5.62
2022-12-25T04:57:31.314Z,5.64
2022-12-25T05:00:33.416Z,5.56
2022-12-25T05:03:35.685Z,5.37
2022-12-25T05:06:37.869Z,5.33
2022-12-25T05:09:41.857Z,5.32
2022-12-25T05:12:44.122Z,5.38
2022-12-25T05:15:46.321Z,5.37
2022-12-25T05:18:50.124Z,5.41
2022-12-25T05:21:57.369Z,5.16
2022-12-25T05:24:59.749Z,5.23
2022-12-25T05:28:01.703Z,5.20
2022-12-25T05:31:03.829Z,5.10
2022-12-25T05:34:06.087Z,5.05
2022-12-25T05:37:08.311Z,4.92
2022-12-25T05:40:11.141Z,4.99
2022-12-25T05:43:13.395Z,4.96
2022-12-25T05:46:15.494Z,4.92
2022-12-25T05:49:17.800Z,4.87
2022-12-25T05:52:20.366Z,4.81
2022-12-25T05:55:22.542Z,4.92
2022-12-25T05:58:24.570Z,4.73
2022-12-25T06:01:28.732Z,4.81
2022-12-25T06:04:31.025Z,4.76
2022-12-25T06:07:36.861Z,4.61
2022-12-25T06:10:39.033Z,4.63
2022-12-25T06:13:41.486Z,4.76
2022-12-25T06:16:43.841Z,4.75
2022-12-25T06:19:45.789Z,4.65
2022-12-25T06:22:47.964Z,4.76
2022-12-25T06:25:50.314Z,4.56
2022-12-25T06:28:53.057Z,4.61
2022-12-25T06:31:57.466Z,4.64
2022-12-25T06:34:59.452Z,4.67
2022-12-25T06:38:01.496Z,4.67
2022-12-25T06:41:12.842Z,4.84
2022-12-25T06:44:14.892Z,4.81
2022-12-25T06:47:17.275Z,4.80
2022-12-25T06:50:19.490Z,4.67
2022-12-25T06:53:21.387Z,4.69
2022-12-25T06:56:27.294Z,4.73
2022-12-25T06:59:30.000Z,4.74
2022-12-25T07:02:33.481Z,4.61
2022-12-25T07:05:35.545Z,4.73
2022-12-25T07:08:37.741Z,4.69
2022-12-25T07:11:39.824Z,4.78
2022-12-25T07:14:42.561Z,4.92
2022-12-25T07:17:44.613Z,4.85
2022-12-25T07:20:46.514Z,4.96
2022-12-25T07:23:50.045Z,5.09
2022-12-25T07:26:52.398Z,5.01
2022-12-25T07:29:54.485Z,4.94
2022-12-25T07:32:57.121Z,4.87
2022-12-25T07:35:59.370Z,4.99
2022-12-25T07:39:01.428Z,5.02
2022-12-25T07:42:03.602Z,5.04
2022-12-25T07:45:06.248Z,5.06
2022-12-25T07:48:11.980Z,5.04
2022-12-25T07:51:18.953Z,4.96
2022-12-25T07:54:21.301Z,4.92
2022-12-25T07:57:23.365Z,4.89
2022-12-25T08:00:29.848Z,5.04
2022-12-25T08:03:33.790Z,5.21
2022-12-25T08:06:36.395Z,5.31
2022-12-25T08:09:39.064Z,5.41
2022-12-25T08:12:41.046Z,5.52
2022-12-25T08:15:43.167Z,5.55
2022-12-25T08:18:45.252Z,5.71
2022-12-25T08:21:47.067Z,5.72
2022-12-25T08:24:49.015Z,5.78
2022-12-25T08:27:51.135Z,5.84
2022-12-25T08:30:53.256Z,5.86
2022-12-25T08:33:58.332Z,5.94
2022-12-25T08:37:00.368Z,5.88
2022-12-25T08:40:02.523Z,5.75
2022-12-25T08:43:05.218Z,5.71
2022-12-25T08:46:07.612Z,5.89
2022-12-25T08:49:09.827Z,5.77
2022-12-25T08:52:12.036Z,5.76
2022-12-25T08:55:14.264Z,5.61
2022-12-25T08:58:16.992Z,5.66
2022-12-25T09:01:19.533Z,5.72
2022-12-25T09:04:22.244Z,5.83
2022-12-25T09:07:24.380Z,5.85
2022-12-25T09:10:26.832Z,5.71
2022-12-25T09:13:29.196Z,5.92
2022-12-25T09:16:31.299Z,5.92
2022-12-25T09:19:34.238Z,6.05
2022-12-25T09:22:36.771Z,6.08
2022-12-25T09:25:39.106Z,6.27
2022-12-25T09:28:50.213Z,6.37
2022-12-25T09:31:53.765Z,6.47
2022-12-25T09:34:55.919Z,6.56
2022-12-25T09:37:58.270Z,6.52
2022-12-25T09:41:26.638Z,6.46
2022-12-25T09:44:34.213Z,6.84
2022-12-25T09:47:40.430Z,6.76
2022-12-25T09:50:58.967Z,6.91
2022-12-25T09:54:11.877Z,7.05
2022-12-25T09:57:17.158Z,7.04
2022-12-25T10:00:22.643Z,6.98
2022-12-25T10:03:44.350Z,6.90
2022-12-25T10:07:14.536Z,6.90
2022-12-25T10:10:50.985Z,7.15
2022-12-25T10:13:52.939Z,7.26
2022-12-25T10:17:32.935Z,7.38
2022-12-25T10:20:46.556Z,7.48
2022-12-25T10:24:03.427Z,7.68
2022-12-25T10:27:15.409Z,7.89
2022-12-25T10:30:27.426Z,7.95
2022-12-25T10:33:30.146Z,7.99
2022-12-25T10:36:32.968Z,8.12
2022-12-25T10:39:36.075Z,8.16
2022-12-25T10:42:44.063Z,8.16
2022-12-25T10:45:47.876Z,8.13
2022-12-25T10:48:56.875Z,8.28
2022-12-25T10:52:00.321Z,8.33
2022-12-25T10:55:12.632Z,8.42
2022-12-25T10:58:20.834Z,8.61
2022-12-25T11:01:29.206Z,8.64
2022-12-25T11:04:35.981Z,8.63
2022-12-25T11:07:51.287Z,9.10
2022-12-25T11:10:58.554Z,9.07
2022-12-25T11:14:02.879Z,9.06
2022-12-25T11:17:18.259Z,8.91
2022-12-25T11:20:21.779Z,8.87
2022-12-25T11:23:25.946Z,9.02
2022-12-25T11:26:30.612Z,9.47
2022-12-25T11:29:50.708Z,9.21
2022-12-25T11:32:56.302Z,9.12
2022-12-25T11:36:03.056Z,9.14
2022-12-25T11:39:37.065Z,9.05
2022-12-25T11:42:44.727Z,9.09
2022-12-25T11:46:16.400Z,9.21
2022-12-25T11:49:21.769Z,9.72
2022-12-25T11:52:26.017Z,9.66
2022-12-25T11:55:40.201Z,9.46
2022-12-25T11:58:43.646Z,9.50
2022-12-25T12:01:51.167Z,9.78
2022-12-25T12:05:07.025Z,9.67
2022-12-25T12:08:11.784Z,9.84
2022-12-25T12:11:53.187Z,9.77
2022-12-25T12:15:26.952Z,9.77
2022-12-25T12:18:34.498Z,10.04
2022-12-25T12:21:36.890Z,10.00
2022-12-25T12:24:42.675Z,10.44
2022-12-25T12:27:45.472Z,10.45
2022-12-25T12:30:59.121Z,10.27
2022-12-25T12:34:01.115Z,10.28
2022-12-25T12:37:18.651Z,10.24
2022-12-25T12:40:52.093Z,10.09
2022-12-25T12:44:03.051Z,10.14
2022-12-25T12:47:05.116Z,10.17
2022-12-25T12:50:08.310Z,10.06
2022-12-25T12:53:16.533Z,10.08
2022-12-25T12:56:20.510Z,10.03
2022-12-25T12:59:23.681Z,9.99
2022-12-25T13:02:59.173Z,10.13
2022-12-25T13:06:10.930Z,10.19
2022-12-25T13:09:25.102Z,10.21
2022-12-25T13:12:27.263Z,10.32
2022-12-25T13:15:34.462Z,10.54
2022-12-25T13:18:39.851Z,10.76
2022-12-25T13:21:52.630Z,10.81
2022-12-25T13:24:57.583Z,10.86
2022-12-25T13:27:59.627Z,10.88
2022-12-25T13:31:07.418Z,10.94
2022-12-25T13:34:41.081Z,11.07
2022-12-25T13:37:44.486Z,11.15
2022-12-25T13:41:14.031Z,11.09
2022-12-25T13:44:24.490Z,10.95
2022-12-25T13:47:55.822Z,10.74
2022-12-25T13:51:00.523Z,10.70
2022-12-25T13:54:07.376Z,10.76
2022-12-25T13:57:13.422Z,10.59
2022-12-25T14:00:32.382Z,10.62
2022-12-25T14:03:41.750Z,10.71
2022-12-25T14:06:44.394Z,10.69
2022-12-25T14:09:48.840Z,10.63
2022-12-25T14:12:54.559Z,10.53
2022-12-25T14:15:57.598Z,10.52
2022-12-25T14:19:02.276Z,10.40
2022-12-25T14:22:16.901Z,10.51
2022-12-25T14:25:21.054Z,10.58
2022-12-25T14:28:33.243Z,10.60
2022-12-25T14:31:38.608Z,10.33
2022-12-25T14:34:42.482Z,10.17
2022-12-25T14:37:44.978Z,10.03
2022-12-25T14:40:46.954Z,9.91
2022-12-25T14:43:56.065Z,9.92
2022-12-25T14:47:19.493Z,9.84
2022-12-25T14:50:32.369Z,9.91
2022-12-25T14:53:48.515Z,9.95
2022-12-25T14:56:53.153Z,9.98
2022-12-25T14:59:58.175Z,10.00
2022-12-25T15:03:00.895Z,9.89
2022-12-25T15:06:19.295Z,9.79
2022-12-25T15:09:22.065Z,9.80
2022-12-25T15:12:24.697Z,9.63
2022-12-25T15:15:27.332Z,9.51
2022-12-25T15:18:35.551Z,9.24
2022-12-25T15:21:37.943Z,9.09
2022-12-25T15:24:40.065Z,8.95
2022-12-25T15:27:42.732Z,8.87
2022-12-25T15:30:45.591Z,8.84
2022-12-25T15:33:48.616Z,8.85
2022-12-25T15:36:54.033Z,8.92
2022-12-25T15:39:57.421Z,9.02
2022-12-25T15:42:59.867Z,8.93
2022-12-25T15:46:02.359Z,9.02
2022-12-25T15:49:04.590Z,9.06
2022-12-25T15:52:08.145Z,8.99
2022-12-25T15:55:10.861Z,8.96
2022-12-25T15:58:13.148Z,8.95
2022-12-25T16:01:20.059Z,8.84
2022-12-25T16:04:23.900Z,8.78
2022-12-25T16:07:25.969Z,8.74
2022-12-25T16:10:32.140Z,8.92
2022-12-25T16:13:37.683Z,9.06
2022-12-25T16:16:40.214Z,9.08
2022-12-25T16:19:49.567Z,9.12
2022-12-25T16:22:51.487Z,9.28
2022-12-25T16:25:53.672Z,9.22
2022-12-25T16:28:55.922Z,9.20
2022-12-25T16:31:58.460Z,9.16
2022-12-25T16:35:00.634Z,9.18
2022-12-25T16:38:03.483Z,9.20
2022-12-25T16:41:05.838Z,9.18
2022-12-25T16:44:10.275Z,9.17
2022-12-25T16:47:12.433Z,9.21
2022-12-25T16:50:15.488Z,9.18
2022-12-25T16:53:17.444Z,9.18
2022-12-25T16:56:21.321Z,9.18
2022-12-25T16:59:23.395Z,9.15
2022-12-25T17:02:27.307Z,9.10
2022-12-25T17:05:29.410Z,9.02
2022-12-25T17:08:31.670Z,9.10
2022-12-25T17:11:33.970Z,9.07
2022-12-25T17:14:36.475Z,9.19
2022-12-25T17:17:38.901Z,9.09
2022-12-25T17:20:49.618Z,9.11
2022-12-25T17:23:55.332Z,9.13
2022-12-25T17:27:00.573Z,9.17
2022-12-25T17:30:02.789Z,9.16
2022-12-25T17:33:05.541Z,8.99
2022-12-25T17:36:11.233Z,9.00
2022-12-25T17:39:13.995Z,8.99
2022-12-25T17:42:15.951Z,9.02
2022-12-25T17:45:18.986Z,8.94
2022-12-25T17:48:21.599Z,8.89
2022-12-25T17:51:26.031Z,8.79
2022-12-25T17:54:28.583Z,8.82
2022-12-25T17:57:30.505Z,8.80
2022-12-25T18:00:32.762Z,8.72
2022-12-25T18:03:36.882Z,8.56
2022-12-25T18:06:39.277Z,8.49
2022-12-25T18:09:41.785Z,8.33
2022-12-25T18:12:45.015Z,8.39
2022-12-25T18:15:47.487Z,8.39
2022-12-25T18:18:52.604Z,8.37
2022-12-25T18:21:55.071Z,8.32
2022-12-25T18:24:57.154Z,8.23
2022-12-25T18:28:02.330Z,8.34
2022-12-25T18:31:21.100Z,8.42
2022-12-25T18:34:23.679Z,8.52
2022-12-25T18:37:28.083Z,8.49
2022-12-25T18:40:30.513Z,8.54
2022-12-25T18:43:51.355Z,8.65
2022-12-25T18:46:55.226Z,8.69
2022-12-25T18:49:57.302Z,8.72
2022-12-25T18:53:00.374Z,8.70
2022-12-25T18:56:11.954Z,8.74
2022-12-25T18:59:14.716Z,8.74
2022-12-25T19:02:18.370Z,8.79
2022-12-25T19:05:21.375Z,8.80
2022-12-25T19:08:23.637Z,8.75
2022-12-25T19:11:25.781Z,8.81
2022-12-25T19:14:29.812Z,8.90
2022-12-25T19:17:51.095Z,8.84
2022-12-25T19:20:53.672Z,8.82
2022-12-25T19:23:56.374Z,8.88
2022-12-25T19:26:58.444Z,8.83
2022-12-25T19:30:00.929Z,8.98
2022-12-25T19:33:03.759Z,8.98
2022-12-25T19:36:12.294Z,9.01
2022-12-25T19:39:15.554Z,9.07
2022-12-25T19:42:19.409Z,9.13
2022-12-25T19:45:21.913Z,9.10
2022-12-25T19:48:24.408Z,9.11
2022-12-25T19:51:29.383Z,8.98
2022-12-25T19:54:31.952Z,8.95
2022-12-25T19:57:34.206Z,9.03
2022-12-25T20:00:36.455Z,8.98
2022-12-25T20:03:45.923Z,9.00
2022-12-25T20:06:50.289Z,9.12
2022-12-25T20:09:52.313Z,9.06
2022-12-25T20:12:55.719Z,8.98
2022-12-25T20:16:01.920Z,9.02
2022-12-25T20:19:05.144Z,8.94
2022-12-25T20:22:07.299Z,8.98
2022-12-25T20:25:11.221Z,8.91
2022-12-25T20:28:13.239Z,8.87
2022-12-25T20:31:17.769Z,8.79
2022-12-25T20:34:20.138Z,8.79
2022-12-25T20:37:22.274Z,8.99
2022-12-25T20:40:25.235Z,9.05
2022-12-25T20:43:27.795Z,9.07
2022-12-25T20:46:30.258Z,8.92
2022-12-25T20:49:33.030Z,8.93
2022-12-25T20:52:35.084Z,8.99
2022-12-25T20:55:37.236Z,9.06
2022-12-25T20:58:40.115Z,9.02
2022-12-25T21:01:42.589Z,9.02
2022-12-25T21:04:46.661Z,8.92
2022-12-25T21:07:53.611Z,8.96
2022-12-25T21:11:00.757Z,8.84
2022-12-25T21:14:03.173Z,8.90
2022-12-25T21:17:05.212Z,8.85
2022-12-25T21:20:08.062Z,8.96
2022-12-25T21:23:10.044Z,8.84
2022-12-25T21:26:15.978Z,8.86
2022-12-25T21:29:18.116Z,8.95
2022-12-25T21:32:38.620Z,9.04
2022-12-25T21:35:40.790Z,9.05
2022-12-25T21:38:42.905Z,9.04
2022-12-25T21:41:45.157Z,8.86
2022-12-25T21:44:48.440Z,8.94
2022-12-25T21:47:59.948Z,8.98
2022-12-25T21:51:25.907Z,8.86
2022-12-25T21:54:27.859Z,8.87
2022-12-25T21:57:29.880Z,8.88
2022-12-25T22:00:32.052Z,9.00
2022-12-25T22:03:34.100Z,9.10
2022-12-25T22:06:55.284Z,9.13
2022-12-25T22:09:57.577Z,9.18
2022-12-25T22:13:19.288Z,9.08
2022-12-25T22:16:39.836Z,9.02
2022-12-25T22:19:45.122Z,8.94
2022-12-25T22:22:47.214Z,8.92
2022-12-25T22:25:49.141Z,8.89
2022-12-25T22:28:51.094Z,8.97
2022-12-25T22:31:53.056Z,8.99
2022-12-25T22:34:55.087Z,8.97
2022-12-25T22:37:57.131Z,9.02
2022-12-25T22:40:59.381Z,9.07
2022-12-25T22:44:18.038Z,9.08
2022-12-25T22:47:20.635Z,9.10
2022-12-25T22:50:22.890Z,9.01
2022-12-25T22:53:25.287Z,8.94
2022-12-25T22:56:27.347Z,9.04
2022-12-25T22:59:29.508Z,9.07
2022-12-25T23:02:31.698Z,9.09
2022-12-25T23:05:34.512Z,9.00
2022-12-25T23:08:37.184Z,9.04
2022-12-25T23:11:40.057Z,9.06
2022-12-25T23:14:42.107Z,9.11
2022-12-25T23:18:02.686Z,9.19
2022-12-25T23:21:23.403Z,9.19
2022-12-25T23:24:44.239Z,8.92
2022-12-25T23:27:46.295Z,8.96
2022-12-25T23:30:48.594Z,8.86
2022-12-25T23:33:50.798Z,8.78
2022-12-25T23:36:53.058Z,8.88
2022-12-25T23:39:55.316Z,8.68
2022-12-25T23:42:57.372Z,8.59
2022-12-25T23:45:59.561Z,8.63
2022-12-25T23:49:01.796Z,8.65
2022-12-25T23:52:03.862Z,8.74
2022-12-25T23:55:06.477Z,8.55
2022-12-25T23:58:08.645Z,8.60
